Capitola, CA (95010)

3:33 AM PDT on August 29, 2015 (GMT -0700)
KCASOQUE11 | | Change Station
CLOSE
Current Station
Personal Weather Station
Location: Soquel, CA
Elevation: 125 ft
Nearby Weather Stations

Elev 125 ft 36.99 °N, 121.96 °W | Updated 10 seconds ago

Overcast
Overcast
61.3 °F
Feels Like 61.3 °F
N
0.0
Wind Variable Wind from NE
Gusts 0.0 mph

Today
High -- | Low -- °F
--% Chance of Precip.
Yesterday
High -- | Low -- °F
Precip. -- in
6:36 AM 7:40 PM
Full, 100% visible
Pressure 29.96 in
Visibility 5.0 miles
Clouds Overcast 300 ft
Dew Point 60 °F
Humidity 94%
Rainfall 0.00 in
Snow Depth Not available.
UV 0 out of 12
Pollen 6.70 out of 12
Air Quality Not available.
Flu Activity Not available.
SPECI KWVI 291020Z AUTO 00000KT 5SM BR OVC003 17/16 A2996 RMK AO2 T01720156
Pressure 29.96 in
Visibility 5.0 miles
Clouds Overcast 300 ft
Dew Point 60 °F
Humidity 94%
Rainfall 0.00 in
Snow Depth Not available.
UV 0 out of 12
Pollen 6.70 out of 12
Air Quality Not available.
Flu Activity Not available.
SPECI KWVI 291020Z AUTO 00000KT 5SM BR OVC003 17/16 A2996 RMK AO2 T01720156

10-Day Weather Forecast

×

Almanac

Astronomy

Aug. 29, 2015 Rise Set
Actual Time
Civil Twilight
Nautical Twilight
Astronomical Twilight
Moon
Length of Visible Light
Length of Day
Tomorrow will be .
, % of the Moon is Illuminated

Today's Extremes

State Highs State Lows

Community

WunderPhotos

Upload Photos

1,850,633 photos uploaded!

WunderBlogs® & News

Nearby

Air Quality

  Air Quality AQ Index Pollutant
Not available.

Snow Depth

Station Depth Elevation

Earthquake Activity

City Distance Mag. Time & Date
Minimum magnitude displayed is 2.5.

Coastal Water Temperatures

Place Temperature

Stations

Nearby Weather Stations

Station Location Temp. Windchill Dew Point Humidity Wind Precip. Elev Updated Type